Time;durP1;ratioP1;P1;durP2;ratioP2;P2;SDS_P1;SDS_P2;PMS_P1;PMS_P2;Temp;Humidity;BMP_temperature;BMP_pressure;BME280_temperature;BME280_humidity;BME280_pressure;Samples;Min_cycle;Max_cycle;Signal;HPM_P1;HPM_P2
2023/12/19 05:32:36;;;;;;;;;21.75;17.75;;;;;15.64;46.30;102387.25;5050092;27;45370;-77
2023/12/19 05:35:01;;;;;;;;;21.75;18.50;;;;;15.74;46.23;102396.72;5018384;28;46162;-75
2023/12/19 05:37:26;;;;;;;;;19.50;18.00;;;;;15.59;46.76;102396.47;5036306;28;45270;-76
2023/12/19 05:39:52;;;;;;;;;19.75;18.00;;;;;15.60;46.38;102380.19;5036036;28;45352;-78
2023/12/19 05:42:18;;;;;;;;;19.25;19.25;;;;;15.79;46.16;102383.03;5014844;28;45225;-78
2023/12/19 05:44:43;;;;;;;;;20.00;18.00;;;;;15.71;46.17;102394.16;5029598;28;47255;-75
2023/12/19 05:47:09;;;;;;;;;13.00;13.00;;;;;15.66;46.64;102392.56;5035429;28;58261;-77
2023/12/19 05:49:34;;;;;;;;;21.00;17.25;;;;;15.65;46.29;102407.06;5035629;28;52256;-77
2023/12/19 05:51:59;;;;;;;;;18.75;17.25;;;;;15.73;46.56;102404.94;5018756;28;46254;-77
2023/12/19 05:54:25;;;;;;;;;15.75;15.25;;;;;15.60;46.57;102419.88;5035897;28;45378;-76
2023/12/19 05:56:50;;;;;;;;;19.25;18.25;;;;;15.49;46.77;102420.25;5035673;28;45459;-77
2023/12/19 05:59:15;;;;;;;;;22.75;18.75;;;;;15.13;47.78;102428.00;5036281;28;45403;-77
2023/12/19 06:01:42;;;;;;;;;19.00;16.25;;;;;15.19;47.81;102422.34;5034754;28;45363;-78
2023/12/19 06:04:07;;;;;;;;;23.50;17.25;;;;;15.27;47.42;102406.72;5034007;28;46126;-76
2023/12/19 06:06:34;;;;;;;;;22.25;18.00;;;;;15.24;47.45;102414.94;5035783;28;45304;-78
2023/12/19 06:09:00;;;;;;;;;15.50;15.50;;;;;15.21;47.27;102400.69;5035811;28;45458;-77
2023/12/19 06:11:26;;;;;;;;;21.00;17.50;;;;;15.45;47.00;102414.09;5035370;28;45478;-77
2023/12/19 06:13:51;;;;;;;;;20.75;18.25;;;;;15.27;47.38;102408.53;5035721;28;45492;-78
2023/12/19 06:16:17;;;;;;;;;20.00;20.00;;;;;15.35;46.71;102401.00;5035336;28;45238;-76
2023/12/19 06:18:42;;;;;;;;;20.75;18.50;;;;;15.39;47.03;102399.97;5029129;28;45472;-78
2023/12/19 06:21:07;;;;;;;;;22.50;19.50;;;;;15.14;47.21;102410.84;5035080;28;45227;-76
2023/12/19 06:23:33;;;;;;;;;21.75;19.25;;;;;15.31;47.08;102412.91;5035938;28;46050;-79
2023/12/19 06:25:58;;;;;;;;;22.75;22.00;;;;;14.91;47.51;102373.88;5035503;28;45243;-75
2023/12/19 06:28:23;;;;;;;;;20.25;18.75;;;;;14.99;47.77;102411.41;5035389;28;49230;-77
2023/12/19 06:30:49;;;;;;;;;23.75;19.25;;;;;14.90;47.83;102422.56;5034773;28;50226;-74
2023/12/19 06:33:15;;;;;;;;;18.75;16.50;;;;;14.94;47.83;102414.28;5034956;28;46355;-75
2023/12/19 06:35:43;;;;;;;;;18.50;16.50;;;;;14.96;47.79;102415.13;5016990;28;53671;-76
2023/12/19 06:38:08;;;;;;;;;20.25;18.50;;;;;14.77;47.87;102398.72;5035645;28;45411;-77
2023/12/19 06:40:34;;;;;;;;;18.00;18.00;;;;;14.80;48.36;102413.91;5035654;28;45312;-77
2023/12/19 06:43:02;;;;;;;;;23.75;21.00;;;;;14.63;48.47;102406.41;5035753;28;45337;-78
2023/12/19 06:45:28;;;;;;;;;23.75;19.75;;;;;14.67;48.53;102401.81;5035304;28;45328;-79
2023/12/19 06:47:54;;;;;;;;;21.00;19.25;;;;;14.70;48.36;102407.09;5034631;28;45597;-80
2023/12/19 06:50:19;;;;;;;;;25.25;18.50;;;;;14.82;48.00;102397.66;5032313;28;45457;-83
2023/12/19 06:52:46;;;;;;;;;22.25;22.00;;;;;14.75;47.66;102387.09;5034445;28;45645;-81
2023/12/19 06:55:13;;;;;;;;;21.50;20.50;;;;;14.86;47.61;102377.72;5034139;28;45415;-78
2023/12/19 06:57:38;;;;;;;;;17.75;17.75;;;;;14.83;47.60;102361.63;5034916;28;45490;-78
2023/12/19 07:00:06;;;;;;;;;23.00;19.25;;;;;15.10;47.43;102391.16;5016195;28;45548;-74
2023/12/19 07:02:31;;;;;;;;;16.25;16.25;;;;;14.78;47.96;102367.22;5033674;28;45495;-75
2023/12/19 07:04:57;;;;;;;;;23.75;19.25;;;;;14.92;47.52;102361.28;5030604;28;45461;-79
2023/12/19 07:07:22;;;;;;;;;20.75;20.75;;;;;14.94;47.46;102359.41;5034346;28;45516;-77
2023/12/19 07:09:47;;;;;;;;;20.75;18.25;;;;;14.94;47.69;102362.09;5033870;28;50760;-77
2023/12/19 07:12:13;;;;;;;;;19.25;17.25;;;;;14.94;47.65;102349.47;5034711;28;47267;-77
2023/12/19 07:14:38;;;;;;;;;19.00;16.50;;;;;15.07;47.54;102364.25;5033946;28;45314;-78
2023/12/19 07:17:04;;;;;;;;;21.25;20.25;;;;;15.04;47.48;102345.50;5034639;28;45308;-79
2023/12/19 07:19:29;;;;;;;;;23.00;21.50;;;;;14.97;47.53;102337.69;5034178;28;45896;-80
2023/12/19 07:21:54;;;;;;;;;27.00;21.75;;;;;15.05;47.23;102339.16;5034318;28;45437;-78
2023/12/19 07:24:20;;;;;;;;;23.00;21.00;;;;;14.82;47.58;102332.84;5034127;28;50823;-77
2023/12/19 07:26:45;;;;;;;;;22.75;18.50;;;;;14.88;47.86;102335.34;5034622;28;45273;-79
2023/12/19 07:29:13;;;;;;;;;15.75;15.00;;;;;14.84;47.62;102318.38;5032705;28;48249;-77
2023/12/19 07:31:39;;;;;;;;;21.75;17.75;;;;;14.90;47.57;102334.31;5033321;28;45529;-80
2023/12/19 07:34:05;;;;;;;;;23.50;21.50;;;;;14.62;48.23;102302.13;5038959;28;45321;-81
2023/12/19 07:36:31;;;;;;;;;19.75;18.50;;;;;14.73;48.03;102326.88;5041106;28;45507;-78
2023/12/19 07:38:57;;;;;;;;;18.75;18.75;;;;;14.67;48.04;102320.81;5032695;28;45551;-77
2023/12/19 07:41:25;;;;;;;;;19.00;18.50;;;;;14.84;47.72;102328.28;5034629;28;46000;-78
2023/12/19 07:43:50;;;;;;;;;18.75;18.75;;;;;14.50;48.62;102318.75;5034134;28;45403;-79
2023/12/19 07:46:16;;;;;;;;;26.00;19.25;;;;;14.75;48.07;102313.31;5034485;28;45390;-78
2023/12/19 07:48:41;;;;;;;;;18.50;17.50;;;;;15.01;47.59;102334.78;5033767;28;45450;-78
2023/12/19 07:51:08;;;;;;;;;18.75;17.00;;;;;15.02;47.43;102325.75;5032942;28;46392;-78
2023/12/19 07:53:33;;;;;;;;;22.25;17.75;;;;;15.12;47.17;102324.47;5032849;28;45751;-78
2023/12/19 07:56:03;;;;;;;;;26.25;22.25;;;;;15.21;47.22;102317.81;5033444;28;45436;-81
2023/12/19 07:58:29;;;;;;;;;19.00;18.25;;;;;15.13;47.53;102323.53;5033923;28;45458;-79
2023/12/19 08:00:55;;;;;;;;;23.25;22.50;;;;;15.28;47.44;102315.72;5033180;28;46222;-77
2023/12/19 08:03:23;;;;;;;;;22.25;18.50;;;;;15.12;47.32;102318.16;5033812;28;45272;-78
2023/12/19 08:05:50;;;;;;;;;23.50;21.25;;;;;15.07;47.51;102295.84;5035799;28;45498;-79
2023/12/19 08:08:18;;;;;;;;;22.00;21.75;;;;;14.98;47.48;102302.50;5050902;28;45506;-77
2023/12/19 08:10:45;;;;;;;;;22.00;18.00;;;;;14.98;47.64;102299.78;5019758;28;48948;-77
2023/12/19 08:13:12;;;;;;;;;19.25;19.00;;;;;14.98;47.54;102291.69;5037942;28;45269;-77
2023/12/19 08:15:37;;;;;;;;;25.25;23.00;;;;;15.13;47.70;102301.03;5038130;28;45484;-77
2023/12/19 08:18:04;;;;;;;;;28.25;23.25;;;;;15.12;47.64;102297.44;5037899;28;45580;-78
2023/12/19 08:20:29;;;;;;;;;25.75;20.75;;;;;14.96;47.21;102284.63;5037761;28;46146;-78
2023/12/19 08:22:56;;;;;;;;;21.25;17.50;;;;;15.05;47.32;102289.66;5037584;28;45387;-77
2023/12/19 08:25:21;;;;;;;;;22.25;18.50;;;;;14.98;47.80;102316.00;5038003;28;45282;-76
2023/12/19 08:27:46;;;;;;;;;24.50;20.25;;;;;14.91;47.93;102310.91;5037396;28;62428;-77
2023/12/19 08:30:13;;;;;;;;;17.50;17.50;;;;;14.99;47.75;102296.16;5038128;28;45412;-78
2023/12/19 08:32:39;;;;;;;;;20.50;16.50;;;;;14.72;48.43;102311.59;5037081;28;45321;-76
2023/12/19 08:35:06;;;;;;;;;17.00;17.00;;;;;14.98;48.06;102324.09;5038547;28;45367;-76
2023/12/19 08:37:31;;;;;;;;;22.50;18.25;;;;;15.05;48.02;102317.53;5037929;28;45536;-78
2023/12/19 08:40:02;;;;;;;;;18.75;18.75;;;;;14.92;47.83;102318.94;5038171;28;46020;-77
2023/12/19 08:42:28;;;;;;;;;21.00;17.00;;;;;14.93;48.03;102311.72;5036810;28;45530;-77
2023/12/19 08:44:55;;;;;;;;;17.25;16.50;;;;;15.22;47.62;102314.16;5038378;28;45430;-77
2023/12/19 08:47:21;;;;;;;;;24.00;20.75;;;;;15.28;47.51;102311.22;5037670;28;45329;-79
2023/12/19 08:49:46;;;;;;;;;21.50;21.25;;;;;15.08;47.72;102324.63;5036975;28;45478;-77
2023/12/19 08:52:12;;;;;;;;;17.00;15.00;;;;;14.96;47.91;102284.63;5037792;28;45545;-78
2023/12/19 08:54:38;;;;;;;;;21.00;17.50;;;;;14.93;48.10;102317.13;5037254;28;45344;-76
2023/12/19 08:57:04;;;;;;;;;19.25;17.25;;;;;15.05;48.08;102306.75;5037880;28;45340;-79
2023/12/19 08:59:31;;;;;;;;;24.00;17.00;;;;;14.83;48.65;102313.00;5036950;28;45542;-76
2023/12/19 09:01:57;;;;;;;;;21.00;20.50;;;;;15.13;47.72;102309.13;5036626;28;45427;-77
2023/12/19 09:04:22;;;;;;;;;14.75;10.00;;;;;15.00;48.26;102305.13;5050482;28;45428;-78
2023/12/19 09:06:48;;;;;;;;;19.25;19.25;;;;;14.87;48.23;102264.25;5042944;28;45532;-79
2023/12/19 09:09:14;;;;;;;;;19.50;18.00;;;;;14.88;47.99;102255.22;5024860;28;46171;-77
2023/12/19 09:11:39;;;;;;;;;27.75;22.75;;;;;15.27;47.62;102279.72;5037293;28;45309;-76
2023/12/19 09:14:05;;;;;;;;;19.25;18.75;;;;;15.24;47.52;102271.72;5018962;28;45275;-77
2023/12/19 09:16:30;;;;;;;;;18.00;17.25;;;;;15.08;47.97;102265.19;5036647;28;45344;-77
2023/12/19 09:18:56;;;;;;;;;19.25;19.00;;;;;15.13;48.15;102255.97;5036356;28;45282;-79
2023/12/19 09:21:21;;;;;;;;;21.00;19.50;;;;;15.31;47.33;102256.16;5018323;28;45684;-79
2023/12/19 09:23:46;;;;;;;;;21.50;19.50;;;;;15.32;47.47;102247.09;5036391;28;45525;-79
2023/12/19 09:26:13;;;;;;;;;18.50;13.50;;;;;15.30;47.41;102239.06;5036529;28;45325;-79
2023/12/19 09:28:39;;;;;;;;;18.25;18.25;;;;;15.22;47.20;102233.13;5036778;28;45734;-80
2023/12/19 09:31:07;;;;;;;;;16.50;16.50;;;;;15.25;47.51;102273.50;5022676;28;45330;-80
2023/12/19 09:33:34;;;;;;;;;18.00;18.00;;;;;15.28;47.95;102278.78;5035927;28;45254;-77
2023/12/19 09:35:59;;;;;;;;;17.75;17.75;;;;;15.27;47.85;102262.63;5036389;28;45245;-76
2023/12/19 09:38:25;;;;;;;;;9.75;8.75;;;;;15.23;47.71;102258.28;5035822;28;45329;-78
2023/12/19 09:40:50;;;;;;;;;18.00;16.75;;;;;15.38;47.78;102260.38;5035592;28;59080;-81
2023/12/19 09:43:15;;;;;;;;;14.50;14.50;;;;;15.37;47.50;102259.50;5029191;28;45569;-79
2023/12/19 09:45:41;;;;;;;;;16.25;15.50;;;;;15.48;47.75;102268.00;5034535;28;45525;-78
2023/12/19 09:48:08;;;;;;;;;20.00;16.75;;;;;15.24;47.41;102220.41;5034523;28;46109;-78
2023/12/19 09:50:42;;;;;;;;;16.00;16.00;;;;;15.56;47.03;102240.72;5035022;28;45382;-79
2023/12/19 09:53:10;;;;;;;;;17.50;17.00;;;;;15.61;47.10;102270.22;5035585;28;45521;-78
2023/12/19 09:55:42;;;;;;;;;21.25;14.25;;;;;15.56;47.50;102259.63;5035345;28;45427;-79
2023/12/19 09:58:09;;;;;;;;;15.25;15.25;;;;;15.85;46.70;102269.19;5027747;28;45481;-79
2023/12/19 10:00:36;;;;;;;;;16.75;13.50;;;;;16.07;46.27;102278.13;5029695;28;45486;-78
2023/12/19 10:03:03;;;;;;;;;17.00;15.75;;;;;16.11;46.14;102262.63;5030108;28;45328;-79
2023/12/19 10:05:29;;;;;;;;;17.75;15.75;;;;;15.93;46.23;102236.38;5029566;28;48092;-80
2023/12/19 10:07:58;;;;;;;;;15.25;12.50;;;;;15.84;46.48;102243.06;5044611;28;46313;-80
2023/12/19 10:10:52;;;;;;;;;22.25;15.25;;;;;16.03;46.56;102249.44;5045011;28;44761;-81
2023/12/19 10:13:45;;;;;;;;;17.25;16.25;;;;;15.91;46.34;102246.41;5033829;28;45505;-78
2023/12/19 10:16:12;;;;;;;;;16.00;12.75;;;;;15.56;47.24;102243.41;5028105;28;46314;-78
2023/12/19 10:18:39;;;;;;;;;17.75;17.75;;;;;15.65;47.28;102251.09;5034629;28;45460;-79
2023/12/19 10:21:11;;;;;;;;;14.25;14.25;;;;;15.83;46.90;102242.19;5033436;28;45630;-79
2023/12/19 10:23:37;;;;;;;;;14.75;11.75;;;;;15.99;46.41;102234.28;5031971;28;45554;-79
2023/12/19 10:26:04;;;;;;;;;19.25;15.25;;;;;16.00;46.24;102211.69;5034508;28;45516;-80
2023/12/19 10:28:33;;;;;;;;;16.50;14.25;;;;;15.98;46.54;102182.97;5033919;28;45419;-78
2023/12/19 10:31:15;;;;;;;;;18.75;14.25;;;;;16.11;46.53;102200.38;5020837;28;45415;-78
2023/12/19 10:33:51;;;;;;;;;15.50;15.50;;;;;16.15;46.44;102204.72;5051252;28;45376;-77
2023/12/19 10:36:25;;;;;;;;;22.00;17.25;;;;;16.22;46.20;102193.53;5054837;28;45439;-79
2023/12/19 10:38:52;;;;;;;;;12.25;12.25;;;;;16.23;46.30;102197.13;5055099;28;46003;-80
2023/12/19 10:41:28;;;;;;;;;18.50;17.00;;;;;16.31;46.20;102199.47;5054529;28;45240;-77
2023/12/19 10:43:58;;;;;;;;;13.50;13.50;;;;;16.28;46.02;102165.31;5035680;28;45427;-78
2023/12/19 10:46:27;;;;;;;;;16.00;16.00;;;;;16.47;46.00;102187.84;5024131;28;45534;-81
2023/12/19 10:49:00;;;;;;;;;17.00;16.50;;;;;16.38;46.21;102179.28;5034466;28;46270;-79
2023/12/19 10:51:30;;;;;;;;;15.25;14.25;;;;;16.46;46.11;102186.09;5035878;28;45345;-79
2023/12/19 10:54:08;;;;;;;;;16.25;16.25;;;;;16.55;46.05;102184.78;5036745;28;45328;-78
2023/12/19 10:56:50;;;;;;;;;11.00;11.00;;;;;16.47;45.92;102173.44;5047311;28;45827;-81
2023/12/19 10:59:27;;;;;;;;;16.75;16.50;;;;;16.62;45.87;102170.03;5034182;28;45730;-76
2023/12/19 11:01:56;;;;;;;;;22.25;14.50;;;;;16.50;45.51;102149.78;5036208;28;45410;-79
2023/12/19 11:04:23;;;;;;;;;15.00;12.75;;;;;16.50;45.96;102141.66;5036268;28;45332;-78
2023/12/19 11:06:55;;;;;;;;;14.50;14.50;;;;;16.19;46.21;102157.63;5040908;28;46499;-78
2023/12/19 11:09:27;;;;;;;;;16.00;13.25;;;;;16.29;46.23;102140.00;5038816;28;46765;-78
2023/12/19 11:11:53;;;;;;;;;10.00;10.00;;;;;16.48;46.00;102148.13;5034692;28;45451;-78
2023/12/19 11:14:23;;;;;;;;;17.75;14.00;;;;;16.40;46.15;102134.97;5035095;28;45390;-80
2023/12/19 11:16:54;;;;;;;;;13.25;13.00;;;;;16.01;47.10;102155.75;5034912;28;45427;-79
2023/12/19 11:19:46;;;;;;;;;20.00;18.50;;;;;15.66;47.58;102120.38;5032172;28;47036;-76
2023/12/19 11:22:31;;;;;;;;;18.00;14.50;;;;;15.91;47.07;102135.53;5043241;28;45608;-79
2023/12/19 11:25:15;;;;;;;;;16.25;16.25;;;;;16.35;46.92;102139.69;5044650;28;45702;-78
2023/12/19 11:27:48;;;;;;;;;14.00;14.00;;;;;16.40;46.55;102131.38;5042689;28;45494;-80
2023/12/19 11:30:35;;;;;;;;;13.00;13.00;;;;;16.40;46.24;102088.94;5044211;28;45434;-76
2023/12/19 11:33:01;;;;;;;;;12.00;9.00;;;;;16.66;46.08;102122.03;5022734;28;45754;-77
2023/12/19 11:35:28;;;;;;;;;17.75;14.50;;;;;16.59;45.86;102103.31;5033498;28;45406;-78
2023/12/19 11:38:17;;;;;;;;;17.25;17.25;;;;;16.88;45.91;102118.16;5041024;28;45406;-79
2023/12/19 11:40:46;;;;;;;;;14.00;14.00;;;;;16.52;46.66;102117.22;5045953;28;45449;-77
2023/12/19 11:43:27;;;;;;;;;14.75;14.75;;;;;16.48;46.77;102111.09;5044873;28;45604;-78
2023/12/19 11:45:53;;;;;;;;;10.25;8.75;;;;;16.59;46.27;102091.59;5021156;28;45210;-80
2023/12/19 11:48:56;;;;;;;;;12.75;12.75;;;;;16.74;46.62;102081.91;5027183;28;46878;-79
2023/12/19 11:51:50;;;;;;;;;14.25;14.25;;;;;16.66;46.72;102084.13;5046421;28;45511;-81
2023/12/19 11:54:16;;;;;;;;;13.25;13.00;;;;;16.60;46.21;102042.81;5041105;28;46239;-80
2023/12/19 11:56:42;;;;;;;;;12.25;12.25;;;;;16.82;46.41;102075.13;5052093;28;45303;-79
2023/12/19 11:59:08;;;;;;;;;14.00;13.00;;;;;16.80;46.33;102063.50;5041008;28;45250;-79
2023/12/19 12:01:41;;;;;;;;;16.00;16.00;;;;;17.01;46.15;102067.78;5040451;28;46477;-78
2023/12/19 12:04:08;;;;;;;;;15.75;13.25;;;;;17.11;45.62;102059.19;5040632;28;45269;-79
2023/12/19 12:06:35;;;;;;;;;15.50;14.25;;;;;16.71;46.00;102050.41;5044800;28;45403;-79
2023/12/19 12:09:03;;;;;;;;;16.00;15.00;;;;;16.66;45.99;102027.25;5043333;28;45663;-79
2023/12/19 12:11:44;;;;;;;;;15.25;14.25;;;;;17.05;45.95;102073.94;5022459;28;48312;-79
2023/12/19 12:14:10;;;;;;;;;15.00;15.00;;;;;16.82;46.36;102047.19;5040311;28;45322;-84
2023/12/19 12:16:36;;;;;;;;;15.00;13.00;;;;;16.41;47.39;102051.94;5044769;28;45253;-79
2023/12/19 12:19:18;;;;;;;;;12.75;12.25;;;;;16.90;46.64;102048.53;5031639;28;47150;-79
2023/12/19 12:21:49;;;;;;;;;16.75;15.50;;;;;16.77;46.47;102012.19;5040172;28;45267;-80
2023/12/19 12:24:25;;;;;;;;;21.75;16.75;;;;;16.89;46.17;102007.97;5042479;28;45332;-78
2023/12/19 12:26:51;;;;;;;;;17.00;13.25;;;;;16.80;46.99;102028.28;5039632;28;45554;-77
2023/12/19 12:29:18;;;;;;;;;15.25;14.75;;;;;16.54;47.26;101996.22;5043337;28;45474;-79
2023/12/19 12:31:46;;;;;;;;;16.00;16.00;;;;;16.75;47.03;102015.94;5042760;28;45454;-81
2023/12/19 12:34:12;;;;;;;;;15.00;12.00;;;;;16.70;47.23;101982.78;5049337;28;45784;-79
2023/12/19 12:36:38;;;;;;;;;15.25;14.00;;;;;16.79;46.65;101972.38;5039251;28;45422;-77
2023/12/19 12:39:04;;;;;;;;;15.00;15.00;;;;;16.84;47.02;101961.31;5040531;28;45573;-79
2023/12/19 12:41:30;;;;;;;;;13.75;12.75;;;;;16.90;46.85;101979.94;5040215;28;46055;-79
2023/12/19 12:43:56;;;;;;;;;13.50;13.50;;;;;16.74;47.47;101979.88;5040076;28;45403;-78
2023/12/19 12:46:24;;;;;;;;;14.25;14.25;;;;;17.07;46.53;101977.22;5043130;28;45359;-78
2023/12/19 12:48:52;;;;;;;;;25.00;17.00;;;;;17.08;46.56;101953.69;5040396;28;45319;-79
2023/12/19 12:51:19;;;;;;;;;17.25;16.00;;;;;16.82;46.99;101949.66;5037951;28;45550;-78
2023/12/19 12:53:44;;;;;;;;;14.50;14.50;;;;;17.13;47.05;101940.75;5037232;28;45379;-76
2023/12/19 12:56:18;;;;;;;;;14.00;10.00;;;;;16.83;47.82;101946.88;5037453;28;45419;-81
2023/12/19 12:58:44;;;;;;;;;20.00;16.75;;;;;17.07;47.21;101941.09;5037199;28;45351;-81
2023/12/19 13:01:10;;;;;;;;;19.75;15.00;;;;;17.03;47.16;101922.28;5036495;28;46116;-80
2023/12/19 13:03:36;;;;;;;;;10.50;10.50;;;;;16.45;48.58;101910.94;5018682;28;45370;-80
2023/12/19 13:06:04;;;;;;;;;14.75;14.75;;;;;17.01;47.47;101907.09;5036750;28;45360;-79
2023/12/19 13:08:30;;;;;;;;;17.50;15.25;;;;;17.21;47.08;101904.16;5036810;28;45190;-80
2023/12/19 13:11:05;;;;;;;;;16.50;13.50;;;;;17.33;46.88;101897.19;5036246;28;45598;-79
2023/12/19 13:13:31;;;;;;;;;16.25;11.75;;;;;17.23;46.77;101890.53;5036761;28;45399;-81
2023/12/19 13:15:56;;;;;;;;;17.00;13.50;;;;;17.34;46.70;101869.13;5036562;28;45335;-80
2023/12/19 13:18:22;;;;;;;;;8.75;7.00;;;;;17.02;47.78;101884.44;5036708;28;45758;-80
2023/12/19 13:20:48;;;;;;;;;15.75;15.75;;;;;17.21;47.35;101878.88;5036387;28;45380;-79
2023/12/19 13:23:14;;;;;;;;;10.00;10.00;;;;;17.36;46.88;101891.59;5018639;28;45317;-78
2023/12/19 13:25:42;;;;;;;;;14.25;11.25;;;;;17.30;47.48;101887.38;5036532;28;45541;-79
2023/12/19 13:28:09;;;;;;;;;12.25;11.75;;;;;17.25;46.98;101848.84;5035196;28;45357;-77
2023/12/19 13:30:35;;;;;;;;;14.25;12.00;;;;;17.45;46.96;101869.38;5044834;28;45471;-75
2023/12/19 13:33:01;;;;;;;;;14.50;14.50;;;;;17.52;46.90;101850.94;5033969;28;45497;-78
2023/12/19 13:35:26;;;;;;;;;13.75;13.00;;;;;17.51;46.90;101855.50;5040158;28;45331;-80
2023/12/19 13:37:52;;;;;;;;;14.25;13.50;;;;;17.50;47.06;101867.31;5031895;28;45592;-78
2023/12/19 13:40:17;;;;;;;;;14.25;12.00;;;;;17.63;46.79;101862.06;5035863;28;45443;-78
2023/12/19 13:42:42;;;;;;;;;13.25;11.00;;;;;17.51;46.69;101846.50;5040446;28;45322;-78
2023/12/19 13:45:08;;;;;;;;;7.50;7.50;;;;;17.42;47.22;101852.44;5038817;28;45912;-80
2023/12/19 13:47:39;;;;;;;;;13.25;13.25;;;;;17.34;47.16;101833.91;5041388;28;46590;-79
2023/12/19 13:50:05;;;;;;;;;10.00;10.00;;;;;16.90;47.56;101795.75;5027571;28;47154;-79
2023/12/19 13:52:30;;;;;;;;;18.50;15.75;;;;;17.12;47.54;101819.78;5044354;28;45468;-80
2023/12/19 13:54:56;;;;;;;;;14.00;14.00;;;;;17.47;47.38;101861.16;5044072;28;45495;-81
2023/12/19 13:57:22;;;;;;;;;12.50;12.50;;;;;17.18;47.86;101830.31;5037763;28;45213;-81
2023/12/19 13:59:47;;;;;;;;;11.00;9.25;;;;;16.96;48.79;101836.03;5018300;28;46916;-79
2023/12/19 14:02:17;;;;;;;;;20.75;15.50;;;;;16.81;48.53;101801.66;5036346;28;45747;-78
2023/12/19 14:04:43;;;;;;;;;12.75;11.50;;;;;17.12;48.43;101827.91;5037098;28;45389;-78
2023/12/19 14:07:13;;;;;;;;;16.00;14.00;;;;;16.96;49.06;101820.66;5036819;28;45340;-78
2023/12/19 14:09:39;;;;;;;;;10.50;10.50;;;;;17.14;48.14;101836.84;5044241;28;46238;-78
2023/12/19 14:12:05;;;;;;;;;16.00;14.75;;;;;16.94;49.20;101825.28;5037110;28;45493;-77
2023/12/19 14:14:30;;;;;;;;;16.00;14.00;;;;;17.04;48.73;101844.59;5019593;28;45630;-78
2023/12/19 14:16:56;;;;;;;;;20.50;14.50;;;;;16.88;48.72;101771.44;5037304;28;45475;-80
2023/12/19 14:19:22;;;;;;;;;14.75;14.75;;;;;16.66;49.00;101778.13;5036583;28;45522;-80
2023/12/19 14:21:49;;;;;;;;;7.75;5.25;;;;;16.88;49.06;101800.34;5018582;28;45482;-77
2023/12/19 14:24:16;;;;;;;;;11.00;10.00;;;;;17.06;49.32;101817.44;5035383;28;45313;-80
2023/12/19 14:26:43;;;;;;;;;17.75;15.75;;;;;17.48;48.06;101815.00;5036220;28;45183;-80
2023/12/19 14:29:09;;;;;;;;;16.00;14.75;;;;;17.21;48.20;101800.31;5037250;28;45466;-82
2023/12/19 14:31:34;;;;;;;;;15.00;13.75;;;;;17.41;48.16;101770.22;5045051;28;45343;-78
2023/12/19 14:34:01;;;;;;;;;14.50;14.50;;;;;17.49;48.12;101797.75;5040362;28;45563;-79
2023/12/19 14:36:27;;;;;;;;;16.25;14.50;;;;;16.82;49.29;101773.63;5036976;28;46015;-80
2023/12/19 14:38:56;;;;;;;;;11.25;10.75;;;;;16.99;49.09;101790.69;5017756;28;46913;-77
2023/12/19 14:41:21;;;;;;;;;11.75;10.25;;;;;17.24;48.89;101797.44;5036840;28;45383;-80
2023/12/19 14:43:47;;;;;;;;;11.00;11.00;;;;;17.42;47.90;101746.72;5036351;28;45565;-80
2023/12/19 14:46:13;;;;;;;;;16.75;12.25;;;;;17.71;47.88;101782.00;5018435;28;46859;-78
2023/12/19 14:48:39;;;;;;;;;14.25;13.75;;;;;17.60;47.88;101762.78;5018599;28;47291;-77
2023/12/19 14:51:04;;;;;;;;;16.00;15.00;;;;;17.76;47.83;101789.88;5036431;28;45246;-79
2023/12/19 14:53:30;;;;;;;;;9.50;8.00;;;;;17.49;48.19;101742.66;5035628;28;45322;-79
2023/12/19 14:55:55;;;;;;;;;9.50;7.75;;;;;17.60;48.17;101770.03;5018666;28;46216;-79
2023/12/19 14:58:20;;;;;;;;;12.50;12.50;;;;;17.37;48.39;101741.53;5041773;28;47965;-80
2023/12/19 15:00:46;;;;;;;;;13.00;11.25;;;;;17.86;47.46;101760.38;5034938;28;45538;-80
2023/12/19 15:03:11;;;;;;;;;13.75;11.75;;;;;17.51;48.00;101725.34;5026798;28;46029;-79
2023/12/19 15:05:37;;;;;;;;;14.50;14.50;;;;;17.71;47.70;101744.03;5018959;28;45396;-80
2023/12/19 15:08:03;;;;;;;;;11.00;11.00;;;;;17.72;47.52;101734.94;5034940;28;46227;-78
2023/12/19 15:10:29;;;;;;;;;16.75;14.00;;;;;17.80;46.86;101733.59;5035846;28;45354;-79
2023/12/19 15:12:54;;;;;;;;;21.50;15.50;;;;;17.92;47.34;101751.88;5036617;28;45445;-79
2023/12/19 15:15:21;;;;;;;;;14.50;13.50;;;;;17.74;47.83;101757.44;5035563;28;45388;-77
2023/12/19 15:17:47;;;;;;;;;13.00;11.00;;;;;17.69;47.41;101737.81;5035371;28;45669;-78
2023/12/19 15:20:13;;;;;;;;;12.25;11.00;;;;;17.76;47.38;101731.09;5035820;28;45418;-78
2023/12/19 15:22:38;;;;;;;;;15.25;14.25;;;;;17.77;47.77;101745.53;5017446;28;45408;-79
2023/12/19 15:25:04;;;;;;;;;16.00;13.25;;;;;17.75;47.90;101723.91;5016951;28;45584;-78
2023/12/19 15:27:31;;;;;;;;;14.25;12.00;;;;;17.75;47.77;101725.75;5017472;28;47359;-79
2023/12/19 15:29:57;;;;;;;;;13.75;13.75;;;;;17.77;47.45;101702.13;5042883;28;45302;-78
2023/12/19 15:32:22;;;;;;;;;16.25;12.25;;;;;18.11;47.33;101731.66;5036840;28;45372;-78
2023/12/19 15:34:47;;;;;;;;;14.75;12.50;;;;;17.82;46.95;101688.28;5033713;28;45382;-79
2023/12/19 15:37:13;;;;;;;;;14.00;12.25;;;;;17.98;47.13;101717.09;5035175;28;45768;-76
2023/12/19 15:39:38;;;;;;;;;15.00;15.00;;;;;18.04;47.25;101732.09;5034950;28;47236;-81
2023/12/19 15:42:05;;;;;;;;;11.25;11.25;;;;;17.85;47.85;101715.22;5035600;28;46533;-79
2023/12/19 15:44:30;;;;;;;;;12.25;10.50;;;;;17.88;47.11;101696.91;5016969;28;47242;-81
2023/12/19 15:46:56;;;;;;;;;14.75;14.75;;;;;18.26;46.99;101729.84;5047930;28;45851;-79
2023/12/19 15:49:21;;;;;;;;;10.50;10.50;;;;;17.75;48.03;101714.91;5034030;28;45207;-77
2023/12/19 15:51:47;;;;;;;;;14.25;14.00;;;;;17.81;47.83;101694.66;5034356;28;45604;-79
2023/12/19 15:54:16;;;;;;;;;11.50;11.50;;;;;18.05;47.56;101685.88;5034586;28;45483;-81
2023/12/19 15:56:42;;;;;;;;;12.25;12.00;;;;;17.66;47.75;101662.09;5035011;28;45677;-77
2023/12/19 15:59:08;;;;;;;;;14.25;14.25;;;;;17.81;48.17;101686.53;5034904;28;45368;-80
2023/12/19 16:01:33;;;;;;;;;13.75;13.75;;;;;18.09;47.58;101687.47;5034507;28;45206;-76
2023/12/19 16:03:59;;;;;;;;;12.25;10.00;;;;;17.99;47.86;101715.25;5035058;28;45287;-78
2023/12/19 16:06:25;;;;;;;;;13.00;12.00;;;;;18.27;47.43;101709.00;5016630;28;47360;-78
2023/12/19 16:08:51;;;;;;;;;14.75;14.50;;;;;18.49;46.92;101703.94;5033079;28;46350;-81
2023/12/19 16:11:18;;;;;;;;;15.25;12.50;;;;;18.61;46.79;101705.91;5034617;28;45400;-78
2023/12/19 16:13:44;;;;;;;;;14.00;12.00;;;;;18.73;46.10;101699.69;5034861;28;45323;-81
2023/12/19 16:16:13;;;;;;;;;16.00;13.00;;;;;18.57;46.58;101701.63;5047586;28;45575;-80
2023/12/19 16:18:43;;;;;;;;;15.75;14.25;;;;;18.61;46.75;101691.47;5034289;28;45318;-79
2023/12/19 16:21:13;;;;;;;;;12.50;12.00;;;;;18.51;46.82;101681.16;5047655;28;45506;-79
2023/12/19 16:23:38;;;;;;;;;12.00;10.25;;;;;18.34;46.59;101648.78;5034117;28;45479;-80
2023/12/19 16:26:05;;;;;;;;;16.75;12.75;;;;;17.90;47.55;101675.97;5034353;28;46176;-78
2023/12/19 16:28:31;;;;;;;;;14.00;12.25;;;;;18.36;47.38;101682.13;5038175;28;45485;-78
2023/12/19 16:30:57;;;;;;;;;8.75;6.25;;;;;18.47;46.86;101682.31;5047741;28;45303;-80
2023/12/19 16:33:23;;;;;;;;;14.50;14.50;;;;;18.26;47.22;101655.66;5036770;28;47080;-81
2023/12/19 16:35:48;;;;;;;;;18.50;14.00;;;;;18.37;47.23;101688.44;5038106;28;45368;-79
2023/12/19 16:38:13;;;;;;;;;14.75;14.75;;;;;18.25;47.62;101686.50;5037424;28;45329;-79
2023/12/19 16:40:39;;;;;;;;;16.25;12.25;;;;;17.77;47.99;101629.78;5016749;28;55773;-80
2023/12/19 16:43:04;;;;;;;;;21.00;16.50;;;;;17.75;47.93;101630.81;5029814;28;49755;-82